Time;durP1;ratioP1;P1;durP2;ratioP2;P2;SDS_P1;SDS_P2;PMS_P1;PMS_P2;Temp;Humidity;BMP_temperature;BMP_pressure;BME280_temperature;BME280_humidity;BME280_pressure;Samples;Min_cycle;Max_cycle;Signal;HPM_P1;HPM_P2
2023/03/03 00:01:00;;;;;;;43.77;26.37;;;-0.10;99.90;;;;;;5096133;28;20611;-70
2023/03/03 00:03:27;;;;;;;49.53;27.40;;;0.00;99.90;;;;;;5096160;28;20200;-70
2023/03/03 00:05:55;;;;;;;48.13;27.23;;;0.00;99.90;;;;;;5096045;28;20614;-69
2023/03/03 00:08:22;;;;;;;43.20;25.27;;;0.00;99.90;;;;;;5095855;28;20297;-70
2023/03/03 00:10:49;;;;;;;43.97;25.57;;;-0.10;99.90;;;;;;5096108;28;20479;-70
2023/03/03 00:13:17;;;;;;;41.77;25.27;;;-0.30;99.90;;;;;;5096137;28;20273;-69
2023/03/03 00:15:44;;;;;;;43.17;25.40;;;-0.20;99.90;;;;;;5095863;28;20563;-70
2023/03/03 00:18:21;;;;;;;41.57;24.33;;;-0.10;99.90;;;;;;5095819;28;20238;-70
2023/03/03 00:20:49;;;;;;;40.17;24.87;;;-0.20;99.90;;;;;;5096013;28;20223;-69
2023/03/03 00:23:23;;;;;;;40.03;23.90;;;-0.30;99.90;;;;;;5095892;28;20234;-69
2023/03/03 00:25:52;;;;;;;40.17;23.07;;;-0.30;99.90;;;;;;5095764;28;20262;-69
2023/03/03 00:28:24;;;;;;;40.30;24.70;;;-0.30;99.90;;;;;;5095629;28;20256;-70
2023/03/03 00:30:52;;;;;;;42.30;24.73;;;-0.40;99.90;;;;;;5095510;28;20690;-70
2023/03/03 00:33:31;;;;;;;42.07;24.80;;;-0.30;99.90;;;;;;5095774;28;20223;-70
2023/03/03 00:36:09;;;;;;;46.03;25.60;;;-0.30;99.90;;;;;;5095313;28;20196;-68
2023/03/03 00:38:37;;;;;;;41.90;25.10;;;-0.30;99.90;;;;;;5095533;28;20235;-69
2023/03/03 00:41:16;;;;;;;41.63;25.10;;;-0.30;99.90;;;;;;5095406;28;20227;-69
2023/03/03 00:43:42;;;;;;;40.60;24.50;;;-0.50;99.90;;;;;;5095583;28;20257;-70
2023/03/03 00:46:10;;;;;;;38.93;24.70;;;-0.60;99.90;;;;;;5095419;28;20204;-69
2023/03/03 00:48:42;;;;;;;39.63;23.37;;;-0.60;99.90;;;;;;5095306;28;20232;-69
2023/03/03 00:51:21;;;;;;;37.33;23.57;;;-0.80;99.90;;;;;;5095254;28;20253;-69
2023/03/03 00:53:50;;;;;;;43.80;26.07;;;-0.90;99.90;;;;;;5095092;28;20286;-70
2023/03/03 00:56:17;;;;;;;41.73;24.77;;;-0.90;99.90;;;;;;5095043;28;20652;-69
2023/03/03 00:58:44;;;;;;;41.57;25.60;;;-0.90;99.90;;;;;;5095273;28;20640;-69
2023/03/03 01:01:11;;;;;;;39.37;23.80;;;-0.90;99.90;;;;;;5095070;28;20200;-70
2023/03/03 01:03:38;;;;;;;44.53;25.07;;;-0.90;99.90;;;;;;5094971;28;20249;-70
2023/03/03 01:06:05;;;;;;;45.03;24.77;;;-1.00;99.90;;;;;;5094866;28;20621;-69
2023/03/03 01:08:31;;;;;;;46.97;26.13;;;-1.10;99.90;;;;;;5094697;28;20271;-70
2023/03/03 01:11:04;;;;;;;40.53;26.07;;;-1.20;99.90;;;;;;5094999;28;20197;-69
2023/03/03 01:13:34;;;;;;;42.50;26.20;;;-1.00;99.90;;;;;;5094780;28;20615;-70
2023/03/03 01:16:01;;;;;;;40.63;24.97;;;-0.80;99.90;;;;;;5094874;28;20197;-70
2023/03/03 01:18:29;;;;;;;45.30;25.37;;;-1.00;99.90;;;;;;5094724;28;20232;-70
2023/03/03 01:20:56;;;;;;;46.87;25.63;;;-1.10;99.90;;;;;;5094656;28;20232;-70
2023/03/03 01:23:22;;;;;;;44.10;26.13;;;-1.10;99.90;;;;;;5094922;28;20239;-70
2023/03/03 01:25:49;;;;;;;40.97;24.07;;;-1.10;99.90;;;;;;5095061;28;20228;-69
2023/03/03 01:28:17;;;;;;;43.50;24.90;;;-1.30;99.90;;;;;;5094585;28;20255;-70
2023/03/03 01:30:43;;;;;;;42.00;26.17;;;-1.20;99.90;;;;;;5094556;28;20228;-69
2023/03/03 01:33:10;;;;;;;47.53;26.13;;;-1.10;99.90;;;;;;5094371;28;20228;-70
2023/03/03 01:35:39;;;;;;;41.33;24.67;;;-1.10;99.90;;;;;;5094237;28;20204;-70
2023/03/03 01:38:06;;;;;;;46.30;25.27;;;-1.10;99.90;;;;;;5094307;28;20196;-69
2023/03/03 01:40:33;;;;;;;43.80;25.73;;;-1.20;99.90;;;;;;5094474;28;20200;-71
2023/03/03 01:43:00;;;;;;;47.33;26.60;;;-1.30;99.90;;;;;;5094314;28;20234;-71
2023/03/03 01:45:30;;;;;;;43.73;25.10;;;-1.40;99.90;;;;;;5094239;28;20227;-70
2023/03/03 01:48:01;;;;;;;45.83;27.67;;;-1.50;99.90;;;;;;5093280;28;20260;-69
2023/03/03 01:50:42;;;;;;;45.43;25.67;;;-1.60;99.90;;;;;;5094029;28;20605;-70
2023/03/03 01:53:13;;;;;;;44.00;25.90;;;-1.60;99.90;;;;;;5094114;28;20195;-70
2023/03/03 01:55:41;;;;;;;44.77;26.73;;;-1.50;99.90;;;;;;5094009;28;20679;-70
2023/03/03 01:58:14;;;;;;;46.63;25.10;;;-1.60;99.90;;;;;;5093897;28;20200;-70
2023/03/03 02:00:45;;;;;;;50.37;26.87;;;-1.70;99.90;;;;;;5094126;28;20242;-70
2023/03/03 02:03:12;;;;;;;46.77;27.40;;;-1.50;99.90;;;;;;5094095;28;20227;-70
2023/03/03 02:05:41;;;;;;;44.90;26.63;;;-1.50;99.90;;;;;;5093907;28;20234;-70
2023/03/03 02:08:11;;;;;;;42.83;26.30;;;-1.50;99.90;;;;;;5093445;28;20710;-70
2023/03/03 02:10:38;;;;;;;42.27;25.33;;;-1.70;99.90;;;;;;5093806;28;20228;-70
2023/03/03 02:13:05;;;;;;;43.60;25.70;;;-1.80;99.90;;;;;;5093653;28;20555;-69
2023/03/03 02:15:34;;;;;;;47.50;27.57;;;-1.80;99.90;;;;;;5093891;28;20232;-69
2023/03/03 02:18:05;;;;;;;50.83;27.33;;;-1.80;99.90;;;;;;5093653;28;20241;-69
2023/03/03 02:20:45;;;;;;;46.70;26.17;;;-1.70;99.90;;;;;;5093601;28;20242;-69
2023/03/03 02:23:18;;;;;;;47.93;26.67;;;-1.70;99.90;;;;;;5093554;28;20231;-69
2023/03/03 02:25:52;;;;;;;43.67;26.27;;;-1.80;99.90;;;;;;5093726;28;20223;-71
2023/03/03 02:28:20;;;;;;;45.73;27.30;;;-2.00;99.90;;;;;;5093654;28;20251;-71
2023/03/03 02:30:47;;;;;;;46.27;26.87;;;-2.00;99.90;;;;;;5093549;28;20231;-70
2023/03/03 02:33:14;;;;;;;41.67;25.67;;;-2.10;99.90;;;;;;5093417;28;20228;-69
2023/03/03 02:35:42;;;;;;;45.07;27.03;;;-2.10;99.90;;;;;;5093218;28;20559;-70
2023/03/03 02:38:17;;;;;;;48.20;26.77;;;-2.20;99.90;;;;;;5093260;28;20640;-70
2023/03/03 02:40:49;;;;;;;47.47;26.77;;;-2.20;99.90;;;;;;5093486;28;20231;-70
2023/03/03 02:43:17;;;;;;;46.97;27.00;;;-2.20;99.90;;;;;;5093405;28;20232;-69
2023/03/03 02:45:45;;;;;;;38.60;24.20;;;-2.00;99.90;;;;;;5093185;28;20269;-69
2023/03/03 02:48:12;;;;;;;46.53;27.00;;;-2.10;99.90;;;;;;5093096;28;20248;-70
2023/03/03 02:50:38;;;;;;;46.50;27.43;;;-2.30;99.90;;;;;;5093079;28;20243;-69
2023/03/03 02:53:05;;;;;;;45.00;26.43;;;-2.20;99.90;;;;;;5093305;28;20231;-69
2023/03/03 02:55:32;;;;;;;43.93;25.90;;;-2.30;99.90;;;;;;5093188;28;20220;-70
2023/03/03 02:57:58;;;;;;;48.23;26.33;;;-2.30;99.90;;;;;;5093080;28;20224;-71
2023/03/03 03:00:25;;;;;;;44.37;26.67;;;-2.40;99.90;;;;;;5093020;28;20253;-69
2023/03/03 03:02:53;;;;;;;47.63;27.23;;;-2.40;99.90;;;;;;5092967;28;20228;-70
2023/03/03 03:05:19;;;;;;;53.43;26.60;;;-2.30;99.90;;;;;;5093164;28;20220;-70
2023/03/03 03:07:46;;;;;;;50.63;27.73;;;-2.40;99.90;;;;;;5092873;28;20259;-70
2023/03/03 03:10:12;;;;;;;47.17;26.87;;;-2.40;99.90;;;;;;5092818;28;20599;-70
2023/03/03 03:12:39;;;;;;;51.70;28.60;;;-2.40;99.90;;;;;;5092900;28;20224;-70
2023/03/03 03:15:08;;;;;;;44.33;26.70;;;-2.40;99.90;;;;;;5092955;28;20193;-70
2023/03/03 03:17:35;;;;;;;49.00;25.50;;;-2.40;99.90;;;;;;5092658;28;20258;-70
2023/03/03 03:20:04;;;;;;;52.40;27.20;;;-2.40;99.90;;;;;;5092933;28;20199;-71
2023/03/03 03:22:30;;;;;;;46.20;25.67;;;-2.40;99.90;;;;;;5092941;28;20632;-71
2023/03/03 03:24:57;;;;;;;52.80;27.70;;;-2.50;99.90;;;;;;5092800;28;20224;-69
2023/03/03 03:27:23;;;;;;;47.57;26.23;;;-2.50;99.90;;;;;;5092815;28;20228;-70
2023/03/03 03:29:50;;;;;;;50.50;27.23;;;-2.60;99.90;;;;;;5092693;28;20319;-69
2023/03/03 03:32:17;;;;;;;47.33;26.80;;;-2.60;99.90;;;;;;5092638;28;20227;-70
2023/03/03 03:34:43;;;;;;;54.20;28.37;;;-2.50;99.90;;;;;;5092889;28;20243;-70
2023/03/03 03:37:11;;;;;;;48.80;27.33;;;-2.50;99.90;;;;;;5093018;28;20232;-70
2023/03/03 03:39:38;;;;;;;47.23;28.77;;;-2.50;99.90;;;;;;5092771;28;20238;-70
2023/03/03 03:42:04;;;;;;;49.73;27.07;;;-2.50;99.90;;;;;;5092586;28;20666;-70
2023/03/03 03:44:31;;;;;;;49.50;27.63;;;-2.60;99.90;;;;;;5092559;28;20236;-70
2023/03/03 03:46:58;;;;;;;53.47;28.00;;;-2.60;99.90;;;;;;5092491;28;20691;-69
2023/03/03 03:49:24;;;;;;;48.10;26.57;;;-2.60;99.90;;;;;;5092628;28;20314;-70
2023/03/03 03:51:51;;;;;;;49.63;27.80;;;-2.70;99.90;;;;;;5092611;28;20228;-69
2023/03/03 03:54:19;;;;;;;45.63;26.53;;;-2.70;99.90;;;;;;5092525;28;20666;-70
2023/03/03 03:56:45;;;;;;;50.47;27.30;;;-2.70;99.90;;;;;;5092515;28;20197;-70
2023/03/03 03:59:12;;;;;;;52.53;27.13;;;-2.70;99.90;;;;;;5092401;28;20228;-70
2023/03/03 04:01:39;;;;;;;45.40;26.53;;;-2.70;99.90;;;;;;5092663;28;20244;-70
2023/03/03 04:04:05;;;;;;;49.70;27.13;;;-2.70;99.90;;;;;;5092621;28;20228;-69
2023/03/03 04:06:32;;;;;;;46.33;26.87;;;-2.50;99.90;;;;;;5092406;28;20192;-71
2023/03/03 04:08:59;;;;;;;47.20;26.07;;;-2.50;99.90;;;;;;5092066;28;20331;-70
2023/03/03 04:11:27;;;;;;;45.97;27.43;;;-2.50;99.90;;;;;;5095188;28;20299;-70
2023/03/03 04:13:53;;;;;;;51.30;27.30;;;-2.50;99.90;;;;;;5095913;28;20235;-71
2023/03/03 04:16:20;;;;;;;52.90;28.10;;;-2.70;99.90;;;;;;5096133;28;20200;-70
2023/03/03 04:18:46;;;;;;;48.03;25.77;;;-2.80;99.90;;;;;;5096055;28;20243;-70
2023/03/03 04:21:14;;;;;;;48.73;26.27;;;-2.80;99.90;;;;;;5096007;28;20223;-70
2023/03/03 04:23:41;;;;;;;50.37;27.40;;;-2.90;99.90;;;;;;5095827;28;20234;-71
2023/03/03 04:26:08;;;;;;;44.47;25.87;;;-2.90;99.90;;;;;;5095717;28;20227;-70
2023/03/03 04:28:36;;;;;;;45.67;25.47;;;-2.90;99.90;;;;;;5095551;28;20220;-70
2023/03/03 04:31:03;;;;;;;49.60;27.00;;;-2.90;99.90;;;;;;5095883;28;20602;-70
2023/03/03 04:33:29;;;;;;;46.13;25.83;;;-2.80;99.90;;;;;;5095741;28;20445;-70
2023/03/03 04:35:56;;;;;;;44.87;26.00;;;-3.00;99.90;;;;;;5095605;28;20234;-69
2023/03/03 04:38:23;;;;;;;51.00;27.70;;;-3.00;99.90;;;;;;5095529;28;20241;-70
2023/03/03 04:40:49;;;;;;;47.90;26.23;;;-3.00;99.90;;;;;;5095365;28;20659;-70
2023/03/03 04:43:16;;;;;;;47.90;26.33;;;-3.00;99.90;;;;;;5095625;28;20238;-70
2023/03/03 04:45:44;;;;;;;46.70;26.47;;;-3.00;99.90;;;;;;5095493;28;20196;-70
2023/03/03 04:48:11;;;;;;;47.07;26.63;;;-2.90;99.90;;;;;;5095363;28;20224;-69
2023/03/03 04:50:38;;;;;;;50.97;27.03;;;-2.90;99.90;;;;;;5095455;28;20238;-69
2023/03/03 04:53:04;;;;;;;47.93;26.20;;;-2.90;99.90;;;;;;5095164;28;20623;-70
2023/03/03 04:55:31;;;;;;;49.53;26.13;;;-3.00;99.90;;;;;;5095118;28;20228;-70
2023/03/03 04:57:57;;;;;;;48.33;25.23;;;-2.90;99.90;;;;;;5095319;28;20227;-70
2023/03/03 05:00:24;;;;;;;49.23;27.13;;;-3.00;99.90;;;;;;5095235;28;20235;-69
2023/03/03 05:02:52;;;;;;;47.03;26.17;;;-3.10;99.90;;;;;;5095141;28;20228;-69
2023/03/03 05:05:19;;;;;;;46.93;25.43;;;-3.20;99.90;;;;;;5095071;28;20204;-70
2023/03/03 05:07:45;;;;;;;44.67;25.57;;;-3.20;99.90;;;;;;5094764;28;20259;-70
2023/03/03 05:10:12;;;;;;;49.03;27.63;;;-3.10;99.90;;;;;;5094721;28;20256;-70
2023/03/03 05:12:39;;;;;;;48.33;26.53;;;-3.10;99.90;;;;;;5095011;28;20200;-69
2023/03/03 05:15:07;;;;;;;53.57;27.93;;;-3.10;99.90;;;;;;5094731;28;20660;-70
2023/03/03 05:17:33;;;;;;;48.20;25.20;;;-3.10;99.90;;;;;;5094756;28;20228;-70
2023/03/03 05:20:01;;;;;;;48.40;25.67;;;-3.00;99.90;;;;;;5094773;28;20200;-70
2023/03/03 05:22:28;;;;;;;45.73;25.77;;;-3.10;99.90;;;;;;5093513;28;20200;-70
2023/03/03 05:24:55;;;;;;;47.00;26.23;;;-3.10;99.90;;;;;;5094745;28;20226;-71
2023/03/03 05:27:21;;;;;;;46.53;26.73;;;-3.10;99.90;;;;;;5094420;28;20652;-70
2023/03/03 05:29:48;;;;;;;52.17;27.83;;;-3.00;99.90;;;;;;5094439;28;20308;-70
2023/03/03 05:32:15;;;;;;;48.23;27.67;;;-2.90;99.90;;;;;;5094466;28;20197;-70
2023/03/03 05:34:41;;;;;;;45.83;25.33;;;-3.00;99.90;;;;;;5094388;28;20258;-71
2023/03/03 05:37:09;;;;;;;48.67;25.13;;;-3.00;99.90;;;;;;5094274;28;20232;-70
2023/03/03 05:39:36;;;;;;;44.77;25.67;;;-3.00;99.90;;;;;;5094498;28;20220;-70
2023/03/03 05:42:03;;;;;;;44.63;25.73;;;-3.00;99.90;;;;;;5094256;28;20231;-70
2023/03/03 05:44:30;;;;;;;45.20;26.97;;;-3.10;99.90;;;;;;5094191;28;20227;-69
2023/03/03 05:46:57;;;;;;;44.17;25.27;;;-3.00;99.90;;;;;;5094091;28;20231;-71
2023/03/03 05:49:24;;;;;;;44.47;26.23;;;-3.00;99.90;;;;;;5093883;28;20230;-69
2023/03/03 05:51:51;;;;;;;46.73;26.47;;;-2.90;99.90;;;;;;5093868;28;20317;-69
2023/03/03 05:54:19;;;;;;;46.90;26.20;;;-2.80;99.90;;;;;;5094109;28;20232;-70
2023/03/03 05:56:45;;;;;;;49.37;26.40;;;-2.70;99.90;;;;;;5094076;28;20247;-70
2023/03/03 05:59:12;;;;;;;48.60;26.77;;;-2.70;99.90;;;;;;5093828;28;20626;-71
2023/03/03 06:01:39;;;;;;;53.67;26.10;;;-2.60;99.90;;;;;;5093915;28;20227;-69
2023/03/03 06:04:05;;;;;;;49.40;26.50;;;-2.60;99.90;;;;;;5093781;28;20228;-69
2023/03/03 06:06:32;;;;;;;49.13;27.07;;;-2.60;99.90;;;;;;5093923;28;20232;-70
2023/03/03 06:08:58;;;;;;;45.90;25.90;;;-2.50;99.90;;;;;;5093477;28;20278;-70
2023/03/03 06:11:26;;;;;;;52.47;28.30;;;-2.50;99.90;;;;;;5093824;28;20227;-71
2023/03/03 06:13:53;;;;;;;58.70;34.90;;;-2.60;99.90;;;;;;5093762;28;20285;-70
2023/03/03 06:16:20;;;;;;;50.03;26.97;;;-2.70;99.90;;;;;;5093777;28;20231;-70
2023/03/03 06:18:47;;;;;;;45.47;26.17;;;-2.60;99.90;;;;;;5093493;28;20249;-71
2023/03/03 06:21:13;;;;;;;46.47;24.90;;;-2.50;99.90;;;;;;5093665;28;20196;-70
2023/03/03 06:23:40;;;;;;;47.60;25.90;;;-2.40;99.90;;;;;;5093625;28;20196;-71
2023/03/03 06:26:07;;;;;;;44.83;25.27;;;-2.60;99.90;;;;;;5093568;28;20254;-71
2023/03/03 06:28:35;;;;;;;42.13;25.03;;;-2.70;99.90;;;;;;5093446;28;20239;-71
2023/03/03 06:31:01;;;;;;;43.17;26.03;;;-2.70;99.90;;;;;;5093169;28;20224;-70
2023/03/03 06:33:28;;;;;;;45.90;24.47;;;-2.60;99.90;;;;;;5092893;28;20218;-71
2023/03/03 06:35:55;;;;;;;47.03;27.37;;;-2.50;99.90;;;;;;5093238;28;20231;-71
2023/03/03 06:38:22;;;;;;;45.83;25.83;;;-2.60;99.90;;;;;;5093393;28;20201;-70
2023/03/03 06:40:48;;;;;;;47.37;26.20;;;-2.60;99.90;;;;;;5093306;28;20243;-70
2023/03/03 06:43:15;;;;;;;47.17;26.93;;;-2.50;99.90;;;;;;5093240;28;20563;-70
2023/03/03 06:45:45;;;;;;;42.87;24.30;;;-2.50;99.90;;;;;;5093117;28;20340;-70
2023/03/03 06:48:12;;;;;;;43.53;24.53;;;-2.50;99.90;;;;;;5093077;28;20309;-70
2023/03/03 06:50:39;;;;;;;43.93;24.40;;;-2.60;99.90;;;;;;5092714;28;20727;-71
2023/03/03 06:53:11;;;;;;;49.33;23.83;;;-2.60;99.90;;;;;;5093022;28;20551;-70
2023/03/03 06:55:38;;;;;;;50.23;24.73;;;-2.60;99.90;;;;;;5093004;28;20286;-70
2023/03/03 06:58:11;;;;;;;46.50;24.90;;;-2.40;99.90;;;;;;5092951;28;20239;-70
2023/03/03 07:00:38;;;;;;;45.30;24.07;;;-2.30;99.90;;;;;;5092910;28;20203;-70
2023/03/03 07:03:14;;;;;;;44.03;25.60;;;-2.40;99.90;;;;;;5093141;28;20231;-70
2023/03/03 07:05:40;;;;;;;46.63;25.37;;;-2.40;99.90;;;;;;5093013;28;20245;-70
2023/03/03 07:08:13;;;;;;;44.80;24.53;;;-2.30;99.90;;;;;;5092679;28;20659;-70
2023/03/03 07:10:39;;;;;;;42.47;25.43;;;-2.30;99.90;;;;;;5092819;28;20267;-70
2023/03/03 07:13:19;;;;;;;43.43;25.60;;;-2.30;99.90;;;;;;5092787;28;20551;-71
2023/03/03 07:15:47;;;;;;;44.83;25.47;;;-2.20;99.90;;;;;;5092961;28;20261;-70
2023/03/03 07:18:33;;;;;;;41.67;24.50;;;-2.10;99.90;;;;;;5092811;28;20196;-71
2023/03/03 07:21:03;;;;;;;43.23;24.93;;;-2.20;99.90;;;;;;5092660;28;20671;-70
2023/03/03 07:23:41;;;;;;;42.63;24.43;;;-2.10;99.90;;;;;;5091410;28;20231;-70
2023/03/03 07:26:11;;;;;;;53.43;28.37;;;-2.10;99.90;;;;;;5092844;28;20223;-71
2023/03/03 07:28:41;;;;;;;47.00;26.97;;;-2.00;99.90;;;;;;5092642;28;20804;-70
2023/03/03 07:31:25;;;;;;;51.23;27.77;;;-1.90;99.90;;;;;;5092532;28;20286;-71
2023/03/03 07:33:54;;;;;;;42.03;25.23;;;-1.80;99.90;;;;;;5092638;28;20228;-71
2023/03/03 07:36:29;;;;;;;54.17;37.43;;;-1.70;99.90;;;;;;5092536;28;20656;-70
2023/03/03 07:38:58;;;;;;;54.07;36.63;;;-1.70;99.90;;;;;;5092541;28;20660;-70
2023/03/03 07:41:26;;;;;;;45.47;28.47;;;-1.50;99.90;;;;;;5092600;28;20230;-71
2023/03/03 07:43:54;;;;;;;43.77;28.80;;;-1.30;99.90;;;;;;5092440;28;20278;-71
2023/03/03 07:46:27;;;;;;;43.60;27.23;;;-1.20;99.90;;;;;;5095237;28;20686;-71
2023/03/03 07:48:56;;;;;;;42.40;25.60;;;-1.00;99.90;;;;;;5096412;28;20250;-70
2023/03/03 07:51:26;;;;;;;39.83;23.63;;;-0.80;99.90;;;;;;5096192;28;20676;-70
2023/03/03 07:53:58;;;;;;;40.03;24.17;;;-0.70;99.90;;;;;;5096194;28;20619;-70
2023/03/03 07:56:29;;;;;;;45.53;25.07;;;-0.50;99.90;;;;;;5096168;28;20674;-71
2023/03/03 07:58:56;;;;;;;43.97;24.70;;;-0.50;99.90;;;;;;5096182;28;20230;-70
2023/03/03 08:01:39;;;;;;;45.23;23.67;;;-0.40;99.90;;;;;;5096317;28;20675;-72
2023/03/03 08:04:16;;;;;;;38.67;23.73;;;-0.20;99.90;;;;;;5096206;28;20203;-71
2023/03/03 08:06:51;;;;;;;40.97;24.60;;;0.00;99.90;;;;;;5095994;28;20563;-71
2023/03/03 08:09:35;;;;;;;39.27;23.57;;;0.20;99.90;;;;;;5095757;28;20249;-71
2023/03/03 08:12:28;;;;;;;41.40;22.40;;;0.40;99.90;;;;;;5096091;28;20224;-71
2023/03/03 08:14:56;;;;;;;44.30;24.47;;;0.60;99.90;;;;;;5095917;28;20232;-71
2023/03/03 08:17:25;;;;;;;43.00;23.30;;;0.80;99.90;;;;;;5095858;28;20201;-70
2023/03/03 08:19:54;;;;;;;42.93;24.50;;;1.00;99.90;;;;;;5095925;28;20287;-70
2023/03/03 08:22:29;;;;;;;50.37;26.13;;;1.20;99.90;;;;;;5095908;28;20232;-71
2023/03/03 08:24:55;;;;;;;44.73;25.67;;;1.40;99.90;;;;;;5095828;28;20312;-70
2023/03/03 08:27:22;;;;;;;46.27;25.30;;;1.60;99.90;;;;;;5095615;28;20664;-71
2023/03/03 08:29:49;;;;;;;39.23;24.97;;;1.90;99.90;;;;;;5095574;28;20249;-69
2023/03/03 08:32:15;;;;;;;41.40;25.47;;;2.10;99.90;;;;;;5095408;28;20558;-71
2023/03/03 08:34:42;;;;;;;41.53;24.33;;;2.30;99.90;;;;;;5095693;28;20229;-71
2023/03/03 08:37:10;;;;;;;44.97;26.30;;;2.60;99.90;;;;;;5095628;28;20223;-71
2023/03/03 08:39:37;;;;;;;43.90;26.30;;;3.00;99.90;;;;;;5095436;28;20231;-71
2023/03/03 08:42:03;;;;;;;42.30;25.00;;;3.40;99.90;;;;;;5095278;28;20231;-71
2023/03/03 08:44:30;;;;;;;42.17;25.40;;;3.70;99.90;;;;;;5095153;28;20235;-71
2023/03/03 08:46:57;;;;;;;41.93;25.10;;;4.00;99.90;;;;;;5095217;28;20235;-71
2023/03/03 08:49:23;;;;;;;39.90;25.13;;;4.30;99.90;;;;;;5095375;28;20623;-71
2023/03/03 08:51:51;;;;;;;37.50;23.53;;;4.60;99.90;;;;;;5095161;28;20259;-71
2023/03/03 08:54:19;;;;;;;42.97;25.80;;;4.90;99.90;;;;;;5095087;28;20564;-71
2023/03/03 08:56:46;;;;;;;39.97;25.57;;;5.00;99.90;;;;;;5094897;28;20324;-70
2023/03/03 08:59:13;;;;;;;35.93;24.03;;;5.20;99.90;;;;;;5094859;28;20258;-71
2023/03/03 09:01:40;;;;;;;36.93;23.93;;;5.30;99.90;;;;;;5095110;28;20208;-71
2023/03/03 09:04:06;;;;;;;36.97;24.37;;;5.30;99.90;;;;;;5095042;28;20196;-70
2023/03/03 09:06:33;;;;;;;40.50;26.13;;;5.40;99.90;;;;;;5094914;28;20218;-72
2023/03/03 09:09:00;;;;;;;35.70;24.67;;;5.60;99.90;;;;;;5094622;28;20268;-70
2023/03/03 09:11:29;;;;;;;35.03;24.77;;;5.90;99.90;;;;;;5094574;28;20247;-71
2023/03/03 09:14:02;;;;;;;35.70;23.97;;;6.00;99.90;;;;;;5094586;28;20656;-71
2023/03/03 09:16:34;;;;;;;39.40;24.83;;;6.10;99.90;;;;;;5094628;28;20628;-71
2023/03/03 09:19:16;;;;;;;38.87;25.90;;;6.20;99.90;;;;;;5094603;28;20231;-70
2023/03/03 09:21:43;;;;;;;38.97;25.70;;;6.30;99.90;;;;;;5094602;28;20232;-70
2023/03/03 09:24:19;;;;;;;42.60;26.67;;;6.70;99.90;;;;;;5094269;28;20239;-70
2023/03/03 09:26:48;;;;;;;37.03;26.43;;;7.30;99.90;;;;;;5094591;28;20227;-71
2023/03/03 09:29:26;;;;;;;59.70;39.60;;;7.90;99.90;;;;;;5094456;28;20196;-71
2023/03/03 09:31:55;;;;;;;44.23;29.20;;;7.70;99.90;;;;;;5094218;28;20220;-71
2023/03/03 09:34:24;;;;;;;42.57;28.20;;;7.00;99.90;;;;;;5094222;28;20219;-70
2023/03/03 09:36:52;;;;;;;37.23;25.80;;;7.40;99.90;;;;;;5094029;28;20556;-70
2023/03/03 09:39:21;;;;;;;40.93;26.63;;;7.80;99.90;;;;;;5094317;28;20295;-70
2023/03/03 09:42:15;;;;;;;34.87;25.67;;;7.90;99.90;;;;;;5094250;28;20204;-70
2023/03/03 09:45:17;;;;;;;34.50;24.87;;;8.10;99.90;;;;;;5093935;28;20768;-70
2023/03/03 09:48:12;;;;;;;35.57;24.97;;;8.30;99.90;;;;;;5094139;28;20195;-70
2023/03/03 09:50:47;;;;;;;34.80;25.47;;;8.70;99.90;;;;;;5093979;28;20641;-70
2023/03/03 09:53:25;;;;;;;32.47;24.73;;;8.80;99.90;;;;;;5093819;28;20256;-70
2023/03/03 09:55:58;;;;;;;32.73;24.33;;;8.90;99.90;;;;;;5094149;28;20195;-70
2023/03/03 09:58:44;;;;;;;32.22;24.42;;;8.80;99.90;;;;;;5093725;28;20245;-70
2023/03/03 10:01:31;;;;;;;37.17;25.20;;;9.00;99.90;;;;;;5093725;28;20239;-70
2023/03/03 10:04:38;;;;;;;33.10;25.42;;;9.00;99.90;;;;;;5093660;28;20238;-70
2023/03/03 10:07:18;;;;;;;29.55;24.65;;;8.60;99.90;;;;;;5093439;28;20257;-70
2023/03/03 10:10:15;;;;;;;35.10;25.23;;;9.00;98.30;;;;;;5093362;28;20366;-70
2023/03/03 10:12:48;;;;;;;30.02;25.10;;;9.60;99.40;;;;;;5093673;28;20235;-70
2023/03/03 10:15:32;;;;;;;30.88;25.67;;;8.60;96.30;;;;;;5093584;28;20257;-71
2023/03/03 10:18:04;;;;;;;34.42;26.20;;;9.30;98.00;;;;;;5093523;28;20261;-71
2023/03/03 10:20:43;;;;;;;28.90;23.75;;;9.10;96.60;;;;;;5093225;28;20789;-71
2023/03/03 10:23:20;;;;;;;27.08;23.35;;;9.70;96.60;;;;;;5093591;28;20224;-71
2023/03/03 10:25:58;;;;;;;28.75;25.13;;;10.30;95.80;;;;;;5093336;28;20200;-70
2023/03/03 10:28:57;;;;;;;30.15;25.10;;;10.40;95.60;;;;;;5093352;28;20239;-71
2023/03/03 10:31:41;;;;;;;28.00;23.67;;;11.10;92.90;;;;;;5093390;28;20269;-71
2023/03/03 10:34:22;;;;;;;30.60;24.88;;;11.30;90.80;;;;;;5092554;28;20243;-70
2023/03/03 10:36:55;;;;;;;29.95;25.52;;;12.00;90.40;;;;;;5093169;28;20234;-70
2023/03/03 10:39:39;;;;;;;29.25;26.15;;;12.30;83.90;;;;;;5093113;28;20227;-71
2023/03/03 10:42:19;;;;;;;29.27;25.05;;;11.60;79.90;;;;;;5093090;28;20215;-71
2023/03/03 10:45:09;;;;;;;27.58;24.58;;;11.90;80.70;;;;;;5093100;28;20245;-71
2023/03/03 10:48:01;;;;;;;29.60;25.63;;;13.20;80.80;;;;;;5092885;28;20231;-71
2023/03/03 10:50:37;;;;;;;29.00;24.92;;;14.00;72.60;;;;;;5093124;28;20216;-70
2023/03/03 10:53:20;;;;;;;27.70;23.90;;;13.30;73.20;;;;;;5092896;28;20231;-71
2023/03/03 10:56:02;;;;;;;29.67;25.35;;;14.40;69.60;;;;;;5092919;28;20222;-72
2023/03/03 10:58:49;;;;;;;28.00;25.10;;;15.80;66.60;;;;;;5093001;28;20192;-70
2023/03/03 11:01:26;;;;;;;26.85;24.02;;;16.40;58.60;;;;;;5092796;28;20232;-70
2023/03/03 11:04:18;;;;;;;27.52;24.55;;;16.60;53.80;;;;;;5092889;28;20203;-71
2023/03/03 11:06:52;;;;;;;27.83;24.88;;;16.50;53.40;;;;;;5092925;28;20235;-71
2023/03/03 11:09:35;;;;;;;28.67;24.58;;;16.80;51.50;;;;;;5092743;28;20614;-71
2023/03/03 11:12:10;;;;;;;27.98;25.10;;;17.00;50.70;;;;;;5092688;28;20227;-71
2023/03/03 11:14:46;;;;;;;27.77;24.48;;;17.80;48.80;;;;;;5092606;28;20220;-70
2023/03/03 11:17:20;;;;;;;27.10;24.38;;;18.40;45.00;;;;;;5092855;28;20200;-70
2023/03/03 11:20:01;;;;;;;26.65;23.90;;;18.30;44.10;;;;;;5092878;28;20717;-70
2023/03/03 11:22:39;;;;;;;27.50;24.75;;;18.70;43.60;;;;;;5096819;28;20289;-70
2023/03/03 11:25:23;;;;;;;26.25;23.65;;;19.50;41.90;;;;;;5096599;28;20261;-70
2023/03/03 11:28:11;;;;;;;25.83;23.35;;;19.40;40.80;;;;;;5096676;28;20238;-71
2023/03/03 11:30:50;;;;;;;26.45;23.75;;;20.20;39.30;;;;;;5096554;28;20707;-71
2023/03/03 11:33:22;;;;;;;26.20;23.60;;;20.40;38.00;;;;;;5096577;28;20251;-71
2023/03/03 11:35:55;;;;;;;24.00;21.67;;;20.50;34.60;;;;;;5096828;28;20239;-71
2023/03/03 11:38:34;;;;;;;26.83;24.10;;;20.80;34.80;;;;;;5096650;28;20196;-71
2023/03/03 11:41:04;;;;;;;26.25;23.58;;;21.00;33.20;;;;;;5096295;28;20203;-71
2023/03/03 11:43:37;;;;;;;25.25;22.85;;;20.80;32.30;;;;;;5096576;28;20200;-71
2023/03/03 11:46:07;;;;;;;25.85;23.20;;;20.50;31.80;;;;;;5096260;28;20261;-71
2023/03/03 11:48:39;;;;;;;26.23;23.73;;;20.80;31.30;;;;;;5096242;28;20681;-71
2023/03/03 11:51:11;;;;;;;27.52;24.60;;;21.30;31.10;;;;;;5096326;28;20582;-71
2023/03/03 11:53:50;;;;;;;27.75;24.95;;;21.50;30.30;;;;;;5096383;28;20402;-70
2023/03/03 11:56:22;;;;;;;26.90;23.92;;;21.00;29.70;;;;;;5096056;28;20597;-70
2023/03/03 11:59:00;;;;;;;26.63;24.10;;;20.00;30.40;;;;;;5096265;28;20204;-71
2023/03/03 12:01:34;;;;;;;27.13;24.52;;;20.20;30.80;;;;;;5096035;28;20614;-71
2023/03/03 12:04:04;;;;;;;27.08;24.48;;;20.30;31.90;;;;;;5095973;28;20228;-71
2023/03/03 12:06:42;;;;;;;27.73;24.92;;;19.40;29.90;;;;;;5096052;28;20234;-71
2023/03/03 12:09:30;;;;;;;28.08;25.17;;;18.20;33.10;;;;;;5095597;28;20730;-71
2023/03/03 12:12:04;;;;;;;28.23;25.38;;;18.90;31.80;;;;;;5095800;28;20227;-71
2023/03/03 12:14:49;;;;;;;28.25;25.23;;;19.90;31.50;;;;;;5095749;28;20231;-71
2023/03/03 12:17:27;;;;;;;27.58;24.83;;;16.80;32.00;;;;;;5095617;28;20638;-70
2023/03/03 12:20:01;;;;;;;28.65;25.58;;;18.70;32.90;;;;;;5095841;28;20196;-71
2023/03/03 12:22:33;;;;;;;27.38;24.60;;;19.50;32.90;;;;;;5095627;28;20724;-71
2023/03/03 12:25:27;;;;;;;27.63;24.77;;;19.70;30.80;;;;;;5095499;28;20324;-70
2023/03/03 12:28:00;;;;;;;26.50;23.70;;;19.70;30.10;;;;;;5095728;28;20687;-71
2023/03/03 12:30:44;;;;;;;26.92;24.13;;;21.30;30.00;;;;;;5095311;28;20238;-71
2023/03/03 12:33:20;;;;;;;26.25;23.38;;;19.90;28.70;;;;;;5095493;28;20660;-70
2023/03/03 12:35:54;;;;;;;27.55;24.70;;;19.40;29.80;;;;;;5095290;28;20223;-70
2023/03/03 12:38:34;;;;;;;25.95;23.38;;;19.90;30.60;;;;;;5095223;28;20231;-70
2023/03/03 12:41:08;;;;;;;26.52;23.48;;;18.80;29.80;;;;;;5095470;28;20234;-70
2023/03/03 12:43:45;;;;;;;26.05;23.45;;;21.00;29.70;;;;;;5095556;28;20204;-70
2023/03/03 12:46:20;;;;;;;24.92;22.42;;;21.90;28.40;;;;;;5095262;28;20944;-70
2023/03/03 12:48:48;;;;;;;28.13;25.20;;;21.00;29.30;;;;;;5095449;28;20324;-70